Time;durP1;ratioP1;P1;durP2;ratioP2;P2;SDS_P1;SDS_P2;PMS_P1;PMS_P2;Temp;Humidity;BMP_temperature;BMP_pressure;BME280_temperature;BME280_humidity;BME280_pressure;Samples;Min_cycle;Max_cycle;Signal;HPM_P1;HPM_P2
2023/07/19 00:00:24;;;;;;;6.00;3.00;;;27.50;96.70;;;;;;5100512;28;20044;-82
2023/07/19 00:02:54;;;;;;;6.30;3.50;;;27.50;96.70;;;;;;5083669;28;20090;-83
2023/07/19 00:05:22;;;;;;;5.18;2.97;;;27.50;96.70;;;;;;5087158;28;20455;-82
2023/07/19 00:07:49;;;;;;;7.03;3.22;;;27.50;96.70;;;;;;5088289;28;20051;-83
2023/07/19 00:10:18;;;;;;;8.43;4.13;;;27.50;96.70;;;;;;5096401;28;20040;-83
2023/07/19 00:12:45;;;;;;;9.02;3.80;;;27.60;96.70;;;;;;5087901;28;20046;-83
2023/07/19 00:15:23;;;;;;;7.60;3.72;;;27.50;96.70;;;;;;5101609;28;20043;-83
2023/07/19 00:17:53;;;;;;;6.78;3.97;;;27.50;96.70;;;;;;5103618;28;20048;-83
2023/07/19 00:20:21;;;;;;;8.02;3.72;;;27.50;96.70;;;;;;5097647;28;20117;-82
2023/07/19 00:22:49;;;;;;;7.75;3.88;;;27.30;96.70;;;;;;5087358;28;20048;-82
2023/07/19 00:25:17;;;;;;;7.38;3.33;;;27.30;96.70;;;;;;5087835;28;20050;-82
2023/07/19 00:27:46;;;;;;;6.13;3.40;;;27.20;96.70;;;;;;5086915;28;20083;-82
2023/07/19 00:30:14;;;;;;;7.47;3.60;;;27.30;96.70;;;;;;5113649;27;20186;-83
2023/07/19 00:32:42;;;;;;;10.35;3.25;;;27.20;96.70;;;;;;5088988;28;20048;-83
2023/07/19 00:35:12;;;;;;;5.93;3.25;;;27.20;96.70;;;;;;5094858;28;20070;-83
2023/07/19 00:37:43;;;;;;;7.80;3.30;;;27.10;96.70;;;;;;5103128;28;20047;-83
2023/07/19 00:40:12;;;;;;;5.60;3.97;;;27.10;96.70;;;;;;5086803;28;20048;-82
2023/07/19 00:42:42;;;;;;;10.60;4.18;;;27.10;96.70;;;;;;5087112;28;20044;-82
2023/07/19 00:45:10;;;;;;;8.18;3.40;;;27.00;96.70;;;;;;5120468;27;20044;-82
2023/07/19 00:47:39;;;;;;;9.85;3.58;;;27.00;96.70;;;;;;5112291;27;20051;-82
2023/07/19 00:50:09;;;;;;;6.30;3.80;;;27.20;96.70;;;;;;5086963;28;20067;-83
2023/07/19 00:52:39;;;;;;;7.93;3.83;;;27.20;96.70;;;;;;5089650;28;20040;-83
2023/07/19 00:55:08;;;;;;;4.63;3.38;;;27.30;96.70;;;;;;5103397;27;20044;-83
2023/07/19 00:57:37;;;;;;;4.40;3.08;;;27.20;96.70;;;;;;5094870;28;20376;-82
2023/07/19 01:00:06;;;;;;;6.88;3.60;;;27.10;96.70;;;;;;5094977;28;20504;-83
2023/07/19 01:02:35;;;;;;;6.55;3.78;;;27.10;96.70;;;;;;5055065;28;20456;-82
2023/07/19 01:05:03;;;;;;;5.85;3.58;;;27.00;96.70;;;;;;5096903;28;20110;-82
2023/07/19 01:07:31;;;;;;;5.18;3.45;;;26.90;96.70;;;;;;5111826;27;20052;-83
2023/07/19 01:10:01;;;;;;;6.68;3.80;;;26.80;96.70;;;;;;5086279;28;20094;-83
2023/07/19 01:12:29;;;;;;;6.65;3.50;;;26.80;96.70;;;;;;5102317;27;20054;-82
2023/07/19 01:14:57;;;;;;;5.32;3.58;;;26.70;96.70;;;;;;5102754;28;20089;-82
2023/07/19 01:17:25;;;;;;;7.07;4.10;;;26.70;96.70;;;;;;5087966;28;20040;-83
2023/07/19 01:19:53;;;;;;;5.50;3.55;;;26.70;96.70;;;;;;5103507;28;20052;-84
2023/07/19 01:22:21;;;;;;;6.05;3.67;;;26.70;96.70;;;;;;5101828;28;20725;-84
2023/07/19 01:24:50;;;;;;;8.82;3.60;;;26.70;96.70;;;;;;5104372;28;20451;-83
2023/07/19 01:27:19;;;;;;;8.60;3.10;;;26.70;96.70;;;;;;5102778;28;20131;-82
2023/07/19 01:29:50;;;;;;;9.23;3.70;;;26.70;96.70;;;;;;5106528;28;20069;-83
2023/07/19 01:32:18;;;;;;;4.50;3.22;;;26.70;96.70;;;;;;5107541;28;20035;-84
2023/07/19 01:34:46;;;;;;;6.25;3.78;;;26.60;96.70;;;;;;5090305;28;20483;-83
2023/07/19 01:37:14;;;;;;;6.30;4.00;;;26.60;96.70;;;;;;5086677;28;20068;-83
2023/07/19 01:39:42;;;;;;;5.57;3.60;;;26.50;96.70;;;;;;5085957;28;20047;-84
2023/07/19 01:42:12;;;;;;;7.88;3.30;;;26.50;96.70;;;;;;5085790;28;20048;-83
2023/07/19 01:44:40;;;;;;;7.55;3.78;;;26.60;96.70;;;;;;5087168;28;20040;-83
2023/07/19 01:47:08;;;;;;;6.70;3.55;;;26.50;96.70;;;;;;5102946;28;20055;-83
2023/07/19 01:49:38;;;;;;;7.68;3.75;;;26.50;96.70;;;;;;5086013;28;20063;-83
2023/07/19 01:52:06;;;;;;;5.32;3.70;;;26.50;96.70;;;;;;5102696;28;20555;-81
2023/07/19 01:54:34;;;;;;;5.93;3.78;;;26.50;96.70;;;;;;5102066;28;20044;-82
2023/07/19 01:57:03;;;;;;;6.95;3.97;;;26.50;96.70;;;;;;5085978;28;20055;-82
2023/07/19 01:59:32;;;;;;;7.30;3.53;;;26.40;96.70;;;;;;5102206;28;20114;-82
2023/07/19 02:02:00;;;;;;;5.35;3.25;;;26.30;96.70;;;;;;5105439;28;20055;-82
2023/07/19 02:04:29;;;;;;;5.85;3.53;;;26.30;96.70;;;;;;5111241;28;20048;-82
2023/07/19 02:06:57;;;;;;;10.98;3.47;;;26.20;96.70;;;;;;5102388;28;20581;-81
2023/07/19 02:09:28;;;;;;;6.57;3.17;;;26.10;96.70;;;;;;5092602;28;20058;-83
2023/07/19 02:11:56;;;;;;;7.47;3.25;;;26.00;96.70;;;;;;5085015;28;20063;-82
2023/07/19 02:14:24;;;;;;;6.55;3.35;;;26.00;96.70;;;;;;5085374;28;20040;-82
2023/07/19 02:16:53;;;;;;;7.18;3.65;;;26.00;96.70;;;;;;5085621;28;20500;-82
2023/07/19 02:19:21;;;;;;;7.00;3.42;;;26.10;96.70;;;;;;5087450;28;20048;-82
2023/07/19 02:21:52;;;;;;;5.78;3.53;;;26.00;96.70;;;;;;5102482;28;20039;-82
2023/07/19 02:24:20;;;;;;;6.32;3.70;;;26.00;96.70;;;;;;5091150;28;20131;-83
2023/07/19 02:26:48;;;;;;;4.28;3.50;;;26.10;96.70;;;;;;5089813;28;20040;-82
2023/07/19 02:29:16;;;;;;;6.85;3.80;;;26.00;96.70;;;;;;5101165;28;20059;-81
2023/07/19 02:31:44;;;;;;;5.72;3.40;;;26.00;96.70;;;;;;5085196;28;20133;-82
2023/07/19 02:34:18;;;;;;;7.63;3.83;;;25.90;96.70;;;;;;5087728;28;20055;-82
2023/07/19 02:36:48;;;;;;;5.32;3.85;;;26.00;96.70;;;;;;5088705;28;20058;-82
2023/07/19 02:39:20;;;;;;;7.05;3.28;;;26.00;96.70;;;;;;5094629;28;20566;-82
2023/07/19 02:41:48;;;;;;;7.22;3.67;;;25.90;96.70;;;;;;5090301;28;20048;-82
2023/07/19 02:44:16;;;;;;;8.65;3.67;;;25.80;96.70;;;;;;5105150;27;20048;-82
2023/07/19 02:46:45;;;;;;;7.18;3.67;;;25.70;96.70;;;;;;5091276;28;20048;-81
2023/07/19 02:49:14;;;;;;;6.70;3.95;;;25.60;96.70;;;;;;5112002;27;20102;-82
2023/07/19 02:51:44;;;;;;;8.38;3.97;;;25.60;96.70;;;;;;5119627;27;20089;-81
2023/07/19 02:54:12;;;;;;;7.15;4.00;;;25.60;96.70;;;;;;5091241;28;20505;-81
2023/07/19 02:56:40;;;;;;;6.63;3.72;;;25.60;96.70;;;;;;5104957;28;20118;-82
2023/07/19 02:59:08;;;;;;;4.70;3.47;;;25.60;96.70;;;;;;5104782;28;20047;-81
2023/07/19 03:01:36;;;;;;;5.55;3.58;;;25.60;96.70;;;;;;5104865;28;20040;-82
2023/07/19 03:04:06;;;;;;;6.70;3.50;;;25.60;96.70;;;;;;5101580;28;20087;-81
2023/07/19 03:06:36;;;;;;;6.07;3.80;;;25.60;96.70;;;;;;5111938;27;20044;-82
2023/07/19 03:09:06;;;;;;;5.60;3.20;;;25.60;96.70;;;;;;5106585;27;20417;-82
2023/07/19 03:11:34;;;;;;;5.63;3.35;;;25.70;96.70;;;;;;5114136;27;20040;-81
2023/07/19 03:14:02;;;;;;;7.15;3.92;;;25.70;96.70;;;;;;5106697;28;20054;-82
2023/07/19 03:16:30;;;;;;;6.57;3.53;;;25.60;96.70;;;;;;5110564;27;20062;-82
2023/07/19 03:18:58;;;;;;;6.85;3.90;;;25.50;96.70;;;;;;5105826;27;20059;-81
2023/07/19 03:21:26;;;;;;;8.55;4.00;;;25.40;96.70;;;;;;5105355;28;20051;-82
2023/07/19 03:23:56;;;;;;;6.82;3.45;;;25.20;96.70;;;;;;5113789;27;20052;-82
2023/07/19 03:26:24;;;;;;;6.22;3.78;;;25.20;96.70;;;;;;5090508;28;20478;-82
2023/07/19 03:28:51;;;;;;;6.32;3.70;;;25.20;96.70;;;;;;5092296;28;20563;-82
2023/07/19 03:31:19;;;;;;;7.00;3.90;;;25.20;96.70;;;;;;5087982;28;20044;-82
2023/07/19 03:33:48;;;;;;;5.03;3.30;;;25.30;96.70;;;;;;5092029;28;20059;-82
2023/07/19 03:36:16;;;;;;;6.68;3.60;;;25.30;96.70;;;;;;5089663;28;20656;-83
2023/07/19 03:38:44;;;;;;;5.75;3.83;;;25.40;96.70;;;;;;5088767;28;20048;-82
2023/07/19 03:41:13;;;;;;;5.30;3.20;;;25.40;96.70;;;;;;5087654;28;20043;-83
2023/07/19 03:43:41;;;;;;;6.70;3.15;;;25.40;96.70;;;;;;5104505;28;20059;-83
2023/07/19 03:46:09;;;;;;;6.60;3.30;;;25.30;96.70;;;;;;5104500;28;20032;-83
2023/07/19 03:48:38;;;;;;;6.85;3.47;;;25.30;96.70;;;;;;5083533;28;20113;-82
2023/07/19 03:51:07;;;;;;;9.30;3.90;;;25.30;96.70;;;;;;5087996;28;20052;-82
2023/07/19 03:53:35;;;;;;;9.63;3.80;;;25.30;96.70;;;;;;5095421;28;20048;-82
2023/07/19 03:56:04;;;;;;;4.65;3.53;;;25.30;96.70;;;;;;5104220;27;20036;-82
2023/07/19 03:58:34;;;;;;;7.57;3.70;;;25.20;96.70;;;;;;5104261;27;20056;-82
2023/07/19 04:01:03;;;;;;;5.88;3.50;;;25.20;96.70;;;;;;5103064;27;20039;-81
2023/07/19 04:03:31;;;;;;;5.22;3.33;;;25.20;96.70;;;;;;5093387;28;20512;-80
2023/07/19 04:05:59;;;;;;;6.82;3.40;;;25.30;96.70;;;;;;5102356;28;20043;-81
2023/07/19 04:08:27;;;;;;;8.10;3.65;;;25.30;96.70;;;;;;5102363;28;20090;-82
2023/07/19 04:10:55;;;;;;;6.40;3.63;;;25.20;96.70;;;;;;5103332;27;20093;-82
2023/07/19 04:13:26;;;;;;;8.63;3.85;;;25.10;96.70;;;;;;5102664;27;20555;-82
2023/07/19 04:15:56;;;;;;;5.78;3.53;;;25.20;96.70;;;;;;5086227;28;20109;-81
2023/07/19 04:18:25;;;;;;;5.88;3.90;;;25.30;96.70;;;;;;5087180;28;20051;-81
2023/07/19 04:20:58;;;;;;;7.32;3.30;;;25.30;96.70;;;;;;5097820;27;20058;-82
2023/07/19 04:23:27;;;;;;;8.77;3.90;;;25.20;96.70;;;;;;5112149;27;20078;-82
2023/07/19 04:25:57;;;;;;;11.63;4.22;;;25.30;96.70;;;;;;5088300;28;20060;-81
2023/07/19 04:28:25;;;;;;;5.05;3.78;;;25.20;96.70;;;;;;5073030;28;20512;-82
2023/07/19 04:30:53;;;;;;;6.35;3.67;;;25.20;96.70;;;;;;5087556;28;20047;-81
2023/07/19 04:33:22;;;;;;;6.50;3.55;;;25.20;96.70;;;;;;5119358;27;20423;-81
2023/07/19 04:35:51;;;;;;;6.88;4.00;;;25.30;96.70;;;;;;5102570;27;20048;-81
2023/07/19 04:38:20;;;;;;;6.05;3.53;;;25.20;96.70;;;;;;5077650;28;20470;-81
2023/07/19 04:40:49;;;;;;;6.85;3.50;;;25.20;96.70;;;;;;5102612;27;20060;-80
2023/07/19 04:43:19;;;;;;;6.00;3.58;;;25.10;96.70;;;;;;5102642;27;20063;-82
2023/07/19 04:45:53;;;;;;;5.68;3.70;;;25.10;96.70;;;;;;5087357;28;20505;-80
2023/07/19 04:48:23;;;;;;;10.45;3.72;;;25.20;96.70;;;;;;5090210;28;20117;-81
2023/07/19 04:50:55;;;;;;;6.97;3.97;;;25.20;96.70;;;;;;5109426;27;20068;-81
2023/07/19 04:53:25;;;;;;;9.23;3.80;;;25.30;96.70;;;;;;5095046;28;20101;-80
2023/07/19 04:55:56;;;;;;;9.00;4.35;;;25.20;96.70;;;;;;5093331;28;20142;-80
2023/07/19 04:58:28;;;;;;;8.50;3.72;;;25.20;96.70;;;;;;5100854;27;20052;-81
2023/07/19 05:01:01;;;;;;;5.20;3.20;;;25.20;96.70;;;;;;5085306;28;20052;-81
2023/07/19 05:03:30;;;;;;;7.60;3.85;;;25.20;96.70;;;;;;5116251;27;20073;-81
2023/07/19 05:05:58;;;;;;;10.00;4.25;;;25.30;96.70;;;;;;5092870;28;20040;-81
2023/07/19 05:08:26;;;;;;;6.57;4.15;;;25.30;96.70;;;;;;5077007;28;20048;-81
2023/07/19 05:10:54;;;;;;;7.82;4.38;;;25.20;96.70;;;;;;5089760;28;20050;-81
2023/07/19 05:13:22;;;;;;;9.05;4.60;;;25.20;96.70;;;;;;5106130;27;20040;-80
2023/07/19 05:15:50;;;;;;;8.77;4.35;;;25.20;96.70;;;;;;5113840;27;20085;-80
2023/07/19 05:18:18;;;;;;;7.93;4.38;;;25.20;96.70;;;;;;5104971;27;20058;-81
2023/07/19 05:20:48;;;;;;;10.43;5.18;;;25.30;96.70;;;;;;5093623;28;20036;-81
2023/07/19 05:23:16;;;;;;;8.63;4.43;;;25.30;96.70;;;;;;5106528;28;20048;-81
2023/07/19 05:25:45;;;;;;;10.65;5.00;;;25.30;96.70;;;;;;5087922;28;20440;-81
2023/07/19 05:28:13;;;;;;;9.18;4.50;;;25.30;96.70;;;;;;5086270;28;20059;-81
2023/07/19 05:30:41;;;;;;;8.25;4.40;;;25.30;96.70;;;;;;5083670;28;20512;-81
2023/07/19 05:33:09;;;;;;;7.35;4.03;;;25.30;96.70;;;;;;5085103;28;20444;-81
2023/07/19 05:35:37;;;;;;;8.88;4.18;;;25.30;96.70;;;;;;5103719;28;20068;-81
2023/07/19 05:38:07;;;;;;;7.80;3.63;;;25.30;96.70;;;;;;5091643;28;20048;-81
2023/07/19 05:40:34;;;;;;;9.18;4.35;;;25.40;96.70;;;;;;5087538;28;20044;-82
2023/07/19 05:43:03;;;;;;;11.88;4.53;;;25.50;96.70;;;;;;5093861;28;20089;-83
2023/07/19 05:45:31;;;;;;;13.90;4.97;;;25.60;96.70;;;;;;5097398;28;20051;-82
2023/07/19 05:47:59;;;;;;;13.63;5.97;;;25.60;96.70;;;;;;5103018;28;20039;-82
2023/07/19 05:50:28;;;;;;;42.53;11.45;;;25.60;96.70;;;;;;5087577;28;20051;-83
2023/07/19 05:52:56;;;;;;;28.10;9.70;;;25.70;96.70;;;;;;5089603;28;20089;-83
2023/07/19 05:55:25;;;;;;;21.67;9.25;;;25.70;96.70;;;;;;5102672;28;20405;-82
2023/07/19 05:57:53;;;;;;;21.27;9.32;;;25.80;96.70;;;;;;5093326;28;20413;-84
2023/07/19 06:00:24;;;;;;;14.30;7.63;;;25.80;96.70;;;;;;5087467;28;20044;-84
2023/07/19 06:02:52;;;;;;;14.10;7.43;;;25.80;96.70;;;;;;5083165;28;20134;-87
2023/07/19 06:05:24;;;;;;;13.88;6.20;;;25.80;96.70;;;;;;5103765;28;20047;-83
2023/07/19 06:07:53;;;;;;;13.13;6.45;;;26.00;96.70;;;;;;5104553;28;20048;-84
2023/07/19 06:10:22;;;;;;;14.70;6.68;;;26.00;96.70;;;;;;5089811;28;20139;-83
2023/07/19 06:12:51;;;;;;;8.20;5.35;;;25.80;96.70;;;;;;5088877;28;20048;-80
2023/07/19 06:15:19;;;;;;;7.80;4.80;;;25.80;96.70;;;;;;5083474;28;20479;-81
2023/07/19 06:17:47;;;;;;;9.00;4.63;;;25.80;96.70;;;;;;5095879;28;20131;-81
2023/07/19 06:20:15;;;;;;;13.63;4.85;;;25.90;96.70;;;;;;5092646;28;20062;-81
2023/07/19 06:22:43;;;;;;;11.05;5.22;;;26.00;96.70;;;;;;5111267;27;20157;-81
2023/07/19 06:25:12;;;;;;;9.55;4.55;;;26.10;96.70;;;;;;5104522;27;20048;-82
2023/07/19 06:27:40;;;;;;;10.07;4.70;;;26.10;96.70;;;;;;5097807;28;20040;-81
2023/07/19 06:30:11;;;;;;;11.25;4.20;;;26.20;96.70;;;;;;5094057;28;20056;-81
2023/07/19 06:32:39;;;;;;;8.68;4.40;;;26.20;96.70;;;;;;5103955;27;20127;-80
2023/07/19 06:35:09;;;;;;;9.75;4.55;;;26.30;96.70;;;;;;5095341;28;20085;-80
2023/07/19 06:37:37;;;;;;;12.10;4.50;;;26.30;96.70;;;;;;5091183;28;20481;-80
2023/07/19 06:40:06;;;;;;;12.50;4.72;;;26.30;96.70;;;;;;5104552;27;20123;-81
2023/07/19 06:42:34;;;;;;;10.90;4.53;;;26.40;96.70;;;;;;5114405;27;20084;-82
2023/07/19 06:45:03;;;;;;;7.20;4.53;;;26.50;96.70;;;;;;5093020;28;20525;-81
2023/07/19 06:47:33;;;;;;;10.05;4.90;;;26.60;96.70;;;;;;5112606;27;20611;-81
2023/07/19 06:50:01;;;;;;;12.95;5.28;;;26.60;96.70;;;;;;5094459;28;20048;-81
2023/07/19 06:52:28;;;;;;;12.02;5.20;;;26.60;96.70;;;;;;5105773;27;20083;-80
2023/07/19 06:54:56;;;;;;;11.05;4.93;;;26.70;96.70;;;;;;5095416;28;20043;-80
2023/07/19 06:57:24;;;;;;;9.00;5.03;;;26.70;96.70;;;;;;5089519;28;20054;-80
2023/07/19 06:59:52;;;;;;;10.32;4.57;;;26.80;96.70;;;;;;5111849;27;20036;-81
2023/07/19 07:02:20;;;;;;;10.27;4.95;;;26.90;96.70;;;;;;5092496;28;20526;-80
2023/07/19 07:04:50;;;;;;;9.05;4.93;;;27.00;96.70;;;;;;5103413;27;20051;-80
2023/07/19 07:07:19;;;;;;;7.28;4.28;;;27.10;96.70;;;;;;5089239;28;20055;-80
2023/07/19 07:09:47;;;;;;;11.27;4.20;;;27.10;96.70;;;;;;5095129;28;20035;-81
2023/07/19 07:12:15;;;;;;;9.50;5.00;;;27.20;96.70;;;;;;5088440;28;20213;-81
2023/07/19 07:14:43;;;;;;;13.52;4.60;;;27.30;96.70;;;;;;5109412;27;20044;-81
2023/07/19 07:17:11;;;;;;;9.93;5.38;;;27.30;96.70;;;;;;5089881;28;20139;-81
2023/07/19 07:19:39;;;;;;;6.93;4.40;;;27.40;96.70;;;;;;5105268;28;20040;-80
2023/07/19 07:22:09;;;;;;;14.23;5.03;;;27.30;96.70;;;;;;5087708;28;20040;-80
2023/07/19 07:24:37;;;;;;;8.18;4.50;;;27.30;96.70;;;;;;5097485;28;20044;-80
2023/07/19 07:27:06;;;;;;;13.90;4.72;;;27.40;96.70;;;;;;5094732;28;20413;-80
2023/07/19 07:29:35;;;;;;;15.05;4.97;;;27.40;96.70;;;;;;5117925;27;20120;-81
2023/07/19 07:32:03;;;;;;;9.82;4.82;;;27.40;96.70;;;;;;5089470;27;20071;-80
2023/07/19 07:34:31;;;;;;;13.98;4.72;;;27.60;96.70;;;;;;5094843;28;20036;-80
2023/07/19 07:36:59;;;;;;;8.48;4.35;;;27.60;96.70;;;;;;5104686;28;20048;-81
2023/07/19 07:39:29;;;;;;;10.05;4.53;;;27.70;96.70;;;;;;5105205;28;20040;-80
2023/07/19 07:41:58;;;;;;;9.40;4.40;;;27.80;96.70;;;;;;5121529;27;20051;-79
2023/07/19 07:44:26;;;;;;;10.90;4.68;;;27.90;96.70;;;;;;5094618;28;20043;-79
2023/07/19 07:46:54;;;;;;;6.95;3.90;;;28.00;96.70;;;;;;5096859;28;20097;-79
2023/07/19 07:49:23;;;;;;;9.30;4.53;;;28.00;96.70;;;;;;5086093;28;20055;-79
2023/07/19 07:51:51;;;;;;;9.63;3.97;;;28.00;96.70;;;;;;5110893;27;20085;-81
2023/07/19 07:54:20;;;;;;;9.40;4.55;;;28.10;96.70;;;;;;5117106;27;20039;-82
2023/07/19 07:56:49;;;;;;;11.57;4.80;;;28.20;96.70;;;;;;5099833;28;20101;-82
2023/07/19 07:59:17;;;;;;;11.85;4.85;;;28.20;96.70;;;;;;5089533;28;20056;-82
2023/07/19 08:01:45;;;;;;;7.72;4.95;;;28.40;96.70;;;;;;5094966;28;20112;-81
2023/07/19 08:04:13;;;;;;;10.82;5.10;;;28.40;96.70;;;;;;5105357;27;21310;-82
2023/07/19 08:06:41;;;;;;;8.63;4.80;;;28.50;96.70;;;;;;5092526;28;20047;-81
2023/07/19 08:09:10;;;;;;;9.95;5.28;;;28.50;96.70;;;;;;5112967;27;20051;-82
2023/07/19 08:11:37;;;;;;;7.45;4.45;;;28.60;96.70;;;;;;5105888;27;20056;-82
2023/07/19 08:14:07;;;;;;;7.13;4.72;;;28.60;96.70;;;;;;5087623;28;20085;-82
2023/07/19 08:16:35;;;;;;;8.40;4.40;;;28.60;96.70;;;;;;5088898;28;20044;-82
2023/07/19 08:19:03;;;;;;;11.73;4.45;;;28.70;96.70;;;;;;5114701;27;20074;-82
2023/07/19 08:21:31;;;;;;;10.80;4.35;;;28.70;96.70;;;;;;5093094;28;20119;-82
2023/07/19 08:24:04;;;;;;;9.10;4.32;;;28.80;96.70;;;;;;5110121;27;20058;-81
2023/07/19 08:26:32;;;;;;;9.55;4.22;;;29.00;96.70;;;;;;5106260;28;20062;-81
2023/07/19 08:29:01;;;;;;;12.68;4.63;;;29.00;96.70;;;;;;5094329;28;20050;-81
2023/07/19 08:31:30;;;;;;;11.27;5.18;;;29.00;96.70;;;;;;5086604;28;20067;-81
2023/07/19 08:33:59;;;;;;;11.40;4.47;;;29.20;96.70;;;;;;5115449;27;20127;-81
2023/07/19 08:36:27;;;;;;;8.60;4.43;;;29.30;96.70;;;;;;5105732;27;20047;-81
2023/07/19 08:38:56;;;;;;;6.28;4.60;;;29.30;96.70;;;;;;5085569;28;20085;-81
2023/07/19 08:41:29;;;;;;;7.65;4.43;;;29.40;96.70;;;;;;5114544;27;20054;-81
2023/07/19 08:44:11;;;;;;;9.32;4.57;;;29.50;96.70;;;;;;5040833;28;20053;-81
2023/07/19 08:46:43;;;;;;;9.85;5.07;;;29.60;96.70;;;;;;5049809;28;20048;-80
2023/07/19 08:49:12;;;;;;;10.32;4.90;;;29.80;96.70;;;;;;5045790;28;20106;-81
2023/07/19 08:51:41;;;;;;;11.38;4.95;;;29.70;96.70;;;;;;5036591;28;20052;-81
2023/07/19 08:54:09;;;;;;;8.52;4.40;;;29.90;96.70;;;;;;5049486;28;20151;-79
2023/07/19 08:56:38;;;;;;;9.63;4.55;;;30.00;96.70;;;;;;5045306;28;20049;-79
2023/07/19 08:59:06;;;;;;;9.75;4.30;;;30.10;96.70;;;;;;5018807;28;20449;-79
2023/07/19 09:01:35;;;;;;;8.85;4.40;;;30.20;96.70;;;;;;5059161;28;20052;-79
2023/07/19 09:04:12;;;;;;;8.40;3.70;;;30.30;96.70;;;;;;5043125;28;20056;-79
2023/07/19 09:06:41;;;;;;;9.82;4.80;;;30.20;96.70;;;;;;5036333;28;20080;-79
2023/07/19 09:09:10;;;;;;;13.32;5.15;;;30.20;96.70;;;;;;5042133;28;20064;-81
2023/07/19 09:11:45;;;;;;;10.57;4.75;;;30.20;96.70;;;;;;5026594;28;20049;-81
2023/07/19 09:14:13;;;;;;;10.20;3.72;;;30.30;96.70;;;;;;5034352;28;20061;-81
2023/07/19 09:16:41;;;;;;;9.40;4.25;;;30.40;96.70;;;;;;5026523;28;20522;-81
2023/07/19 09:19:11;;;;;;;12.07;3.88;;;30.50;96.70;;;;;;5045816;28;20313;-81
2023/07/19 09:21:42;;;;;;;10.48;4.10;;;30.60;96.70;;;;;;5076152;28;20451;-81
2023/07/19 09:24:11;;;;;;;15.35;5.13;;;30.80;96.70;;;;;;5086705;28;20048;-81
2023/07/19 09:26:53;;;;;;;11.07;4.75;;;30.80;96.70;;;;;;5100378;28;20060;-79
2023/07/19 09:29:22;;;;;;;8.45;4.30;;;30.90;96.70;;;;;;5078678;28;20553;-80
2023/07/19 09:31:55;;;;;;;10.50;3.72;;;30.80;96.70;;;;;;5085576;28;20044;-80
2023/07/19 09:34:27;;;;;;;16.52;4.90;;;30.90;96.70;;;;;;5100163;28;20150;-81
2023/07/19 09:36:55;;;;;;;9.85;3.95;;;31.00;96.70;;;;;;5084064;28;20067;-80
2023/07/19 09:39:23;;;;;;;12.52;4.53;;;31.10;96.70;;;;;;5085245;28;20478;-79
2023/07/19 09:41:53;;;;;;;14.05;5.30;;;31.10;96.70;;;;;;5090782;28;20068;-80
2023/07/19 09:44:21;;;;;;;11.90;5.13;;;31.10;96.70;;;;;;5092480;28;20040;-79
2023/07/19 09:46:51;;;;;;;11.38;4.05;;;31.10;96.70;;;;;;5099373;28;20303;-80
2023/07/19 09:49:19;;;;;;;10.23;4.38;;;31.30;96.70;;;;;;5088913;28;20047;-80
2023/07/19 09:51:50;;;;;;;13.13;4.65;;;31.50;96.70;;;;;;5107176;28;20043;-81
2023/07/19 09:54:18;;;;;;;9.32;4.43;;;31.60;96.70;;;;;;5113906;27;20044;-82
2023/07/19 09:56:46;;;;;;;10.18;4.50;;;31.70;96.70;;;;;;5105219;27;20048;-82
2023/07/19 09:59:17;;;;;;;11.70;4.70;;;31.70;96.70;;;;;;5104913;27;20048;-80
2023/07/19 10:01:45;;;;;;;8.82;4.22;;;31.70;96.70;;;;;;5113655;27;20466;-81
2023/07/19 10:04:25;;;;;;;11.52;4.20;;;31.60;96.70;;;;;;5095902;28;20036;-80
2023/07/19 10:07:09;;;;;;;8.88;4.22;;;31.80;96.70;;;;;;5093310;28;20102;-80
2023/07/19 10:09:38;;;;;;;11.07;4.20;;;31.90;96.70;;;;;;5122336;27;20113;-80
2023/07/19 10:12:08;;;;;;;10.98;4.75;;;32.00;96.70;;;;;;5120933;27;20404;-81
2023/07/19 10:14:37;;;;;;;8.77;4.22;;;32.10;96.70;;;;;;5106761;28;20039;-81
2023/07/19 10:17:06;;;;;;;11.15;4.13;;;32.30;96.70;;;;;;5118460;27;20409;-80
2023/07/19 10:19:36;;;;;;;12.80;4.35;;;32.40;96.70;;;;;;5095629;28;20047;-80
2023/07/19 10:22:07;;;;;;;11.90;4.85;;;32.40;96.70;;;;;;5099599;28;20040;-81
2023/07/19 10:24:36;;;;;;;15.98;4.93;;;32.60;96.70;;;;;;5088922;28;20040;-80
2023/07/19 10:27:05;;;;;;;9.55;4.82;;;32.80;96.70;;;;;;5104524;28;20055;-81
2023/07/19 10:29:41;;;;;;;11.10;4.70;;;33.20;96.70;;;;;;5091285;28;20432;-81
2023/07/19 10:32:10;;;;;;;8.73;4.38;;;33.30;96.70;;;;;;5107985;27;20044;-80
2023/07/19 10:34:38;;;;;;;12.63;4.63;;;33.20;96.70;;;;;;5117691;27;20534;-79
2023/07/19 10:37:14;;;;;;;12.10;4.28;;;33.20;96.70;;;;;;5089836;28;20047;-81
2023/07/19 10:39:42;;;;;;;11.27;4.90;;;33.20;96.70;;;;;;5106281;28;20059;-81
2023/07/19 10:42:10;;;;;;;8.73;3.95;;;33.30;96.70;;;;;;5121789;27;20111;-81
2023/07/19 10:44:38;;;;;;;16.95;4.18;;;33.30;96.70;;;;;;5105665;27;20040;-81
2023/07/19 10:47:07;;;;;;;10.15;4.90;;;33.40;96.70;;;;;;5096429;28;20044;-79
2023/07/19 10:49:35;;;;;;;12.23;4.95;;;33.50;96.70;;;;;;5087568;28;20040;-80
2023/07/19 10:52:04;;;;;;;10.55;4.32;;;33.80;96.70;;;;;;5109529;27;20062;-80
2023/07/19 10:54:33;;;;;;;9.95;4.80;;;34.00;96.70;;;;;;5089233;28;20093;-80
2023/07/19 10:57:22;;;;;;;9.23;4.20;;;34.00;96.70;;;;;;5110406;27;20044;-80
2023/07/19 10:59:51;;;;;;;9.90;4.00;;;34.20;96.70;;;;;;5100974;28;20036;-81
2023/07/19 11:02:19;;;;;;;8.63;3.78;;;34.20;96.70;;;;;;5106313;27;20126;-80
2023/07/19 11:04:49;;;;;;;9.85;3.92;;;34.00;96.70;;;;;;5108890;27;20401;-80
2023/07/19 11:07:18;;;;;;;12.93;4.88;;;34.00;96.70;;;;;;5095955;28;20517;-80
2023/07/19 11:09:50;;;;;;;17.33;4.40;;;34.00;96.70;;;;;;5102960;28;20446;-81
2023/07/19 11:12:19;;;;;;;13.25;4.50;;;34.20;96.70;;;;;;5086722;28;20150;-81
2023/07/19 11:14:58;;;;;;;14.32;5.07;;;34.40;96.70;;;;;;5105622;28;20047;-79
2023/07/19 11:17:28;;;;;;;15.23;4.32;;;34.50;96.70;;;;;;5096997;28;20040;-80
2023/07/19 11:19:57;;;;;;;14.93;4.68;;;34.50;96.70;;;;;;5103723;28;20042;-81
2023/07/19 11:22:27;;;;;;;17.33;4.47;;;34.60;96.70;;;;;;5094440;28;20188;-80
2023/07/19 11:24:57;;;;;;;11.80;4.28;;;34.80;96.70;;;;;;5106381;28;20139;-80
2023/07/19 11:27:34;;;;;;;9.48;3.42;;;34.80;96.70;;;;;;5107592;27;20059;-80
2023/07/19 11:30:03;;;;;;;17.38;4.13;;;34.90;96.70;;;;;;5113293;27;20042;-81
2023/07/19 11:32:31;;;;;;;11.57;4.47;;;35.00;96.70;;;;;;5085472;28;20067;-80
2023/07/19 11:35:01;;;;;;;16.25;4.32;;;35.00;96.70;;;;;;5103763;27;20379;-81
2023/07/19 11:37:31;;;;;;;18.70;4.35;;;35.10;96.70;;;;;;5095660;28;20039;-81
2023/07/19 11:40:04;;;;;;;11.50;3.97;;;35.20;96.70;;;;;;5105380;28;20557;-79
2023/07/19 11:42:43;;;;;;;11.15;4.25;;;35.30;96.70;;;;;;5112368;27;20448;-81
2023/07/19 11:45:13;;;;;;;10.05;3.97;;;35.20;96.70;;;;;;5102597;27;20036;-79
2023/07/19 11:47:42;;;;;;;17.85;4.65;;;35.20;96.70;;;;;;5106733;27;20042;-79
2023/07/19 11:50:12;;;;;;;13.57;4.68;;;35.30;96.70;;;;;;5109047;27;20134;-80
2023/07/19 11:52:46;;;;;;;17.48;4.50;;;35.40;96.70;;;;;;5103144;28;20152;-79
2023/07/19 11:55:18;;;;;;;9.38;3.95;;;35.40;96.70;;;;;;5089769;28;20052;-81
2023/07/19 11:57:48;;;;;;;10.00;4.55;;;35.60;96.70;;;;;;5109470;27;20494;-80
2023/07/19 12:00:17;;;;;;;14.50;4.10;;;35.80;96.70;;;;;;5106187;27;20595;-78
2023/07/19 12:02:47;;;;;;;17.60;5.07;;;35.80;96.70;;;;;;5093017;28;20047;-79
2023/07/19 12:05:16;;;;;;;11.15;4.22;;;35.90;96.70;;;;;;5095666;28;20093;-80
2023/07/19 12:07:45;;;;;;;10.85;4.72;;;36.00;96.70;;;;;;5091650;28;20418;-82
2023/07/19 12:10:13;;;;;;;14.73;4.55;;;35.90;96.70;;;;;;5084421;28;20047;-79
2023/07/19 12:12:44;;;;;;;13.40;4.82;;;35.90;96.70;;;;;;5088063;28;20441;-78
2023/07/19 12:15:13;;;;;;;14.02;4.50;;;36.00;96.70;;;;;;5104557;27;20044;-79
2023/07/19 12:17:41;;;;;;;11.70;4.00;;;36.00;96.70;;;;;;5098714;27;20058;-78
2023/07/19 12:20:11;;;;;;;15.82;4.32;;;36.00;96.70;;;;;;5103476;27;20473;-79
2023/07/19 12:22:41;;;;;;;18.52;4.50;;;36.00;96.70;;;;;;5089295;28;20075;-79
2023/07/19 12:25:09;;;;;;;12.95;4.68;;;36.10;96.70;;;;;;5098529;28;20131;-78
2023/07/19 12:27:38;;;;;;;13.55;4.32;;;36.20;96.70;;;;;;5099287;28;20043;-78
2023/07/19 12:30:10;;;;;;;15.55;5.07;;;36.30;96.70;;;;;;5113071;27;20047;-78
2023/07/19 12:32:41;;;;;;;14.52;4.45;;;36.30;96.70;;;;;;5096747;28;20043;-78
2023/07/19 12:35:10;;;;;;;11.15;4.25;;;36.30;96.70;;;;;;5103471;27;20671;-78
2023/07/19 12:37:37;;;;;;;15.68;5.00;;;36.40;96.70;;;;;;5110103;27;20133;-78
2023/07/19 12:40:08;;;;;;;13.13;5.20;;;36.50;96.70;;;;;;5110261;27;20051;-78
2023/07/19 12:42:37;;;;;;;13.43;4.45;;;36.50;96.70;;;;;;5083338;28;20054;-78
2023/07/19 12:45:09;;;;;;;13.38;4.90;;;36.60;96.70;;;;;;5097337;28;20064;-78
2023/07/19 12:47:38;;;;;;;19.88;5.20;;;36.70;96.70;;;;;;5094518;28;21378;-77
2023/07/19 12:50:07;;;;;;;14.30;4.50;;;36.70;96.70;;;;;;5104389;28;20050;-78
2023/07/19 12:52:36;;;;;;;19.25;4.93;;;36.60;96.70;;;;;;5087121;28;20127;-78